KVCT/VCT METAR and TAF weather

Enter ICAO airport designator
Station Type Date Time Source
KVCT METAR 2021/04/13 06:12 UTC NOAA

KVCT 130612Z AUTO 11008KT 9SM OVC009 23/21 A2985 RMK AO2 T02280206 $


Station Type Date Time Source
KVCT Decoded METAR 2021/04/13 06:12 UTC NOAA

VICTORIA REGIONAL AIRPORT, TX, United States (KVCT) 28-52N 96-56W 31M
Apr 13, 2021 - 02:12 AM EDT / 2021.04.13 0612 UTC
Wind: from the ESE (110 degrees) at 9 MPH (8 KT):0
Visibility: 9 mile(s):0
Sky conditions: overcast
Temperature: 73.0 F (22.8 C)
Dew Point: 69.1 F (20.6 C)
Relative Humidity: 87%
Pressure (altimeter): 29.85 in. Hg (1010 hPa)
ob: KVCT 130612Z AUTO 11008KT 9SM OVC009 23/21 A2985 RMK AO2 T02280206
cycle: 6

Station Type Date Time Source
KVCT TAF 2021/04/13 06:22 UTC NOAA

TAF KVCT 130520Z 1306/1406 09007KT P6SM OVC008
FM130900 09006KT 4SM BR OVC006
FM131500 09007KT P6SM OVC015
FM131800 07008KT P6SM OVC035

Example: see airport list